Wetterdaten: Woche 21.08.17 - 27.08.17 (KW34)
Datum Zeit Temp. A. Feuchte A. Luftdruck Regen Wind Richtung Taupunkt Windchill Windben
21.08.2017 00:00 9,1 C 92 % 1024,5 hPa 0,0 l/m 0,0 km/h (0 Bft) O-NO 7,9 C 9,1 C 0,0 km/h (0 Bft)
21.08.2017 01:00 8,9 C 93 % 1024,3 hPa 0,0 l/m 0,0 km/h (0 Bft) O-NO 7,7 C 8,9 C 0,0 km/h (0 Bft)
21.08.2017 02:00 8,4 C 93 % 1024,2 hPa 0,0 l/m 0,0 km/h (0 Bft) O-NO 7,3 C 8,4 C 0,0 km/h (0 Bft)
21.08.2017 03:00 7,7 C 94 % 1024,0 hPa 0,0 l/m 0,0 km/h (0 Bft) O-NO 6,8 C 7,7 C 0,0 km/h (0 Bft)
21.08.2017 04:00 7,9 C 95 % 1023,5 hPa 0,0 l/m 0,0 km/h (0 Bft) O-NO 7,2 C 7,9 C 0,0 km/h (0 Bft)
21.08.2017 05:00 8,2 C 95 % 1023,5 hPa 0,0 l/m 0,0 km/h (0 Bft) O-NO 7,5 C 8,2 C 0,3 km/h (0 Bft)
21.08.2017 06:00 8,4 C 95 % 1023,5 hPa 0,0 l/m 0,0 km/h (0 Bft) O-NO 7,7 C 8,4 C 0,0 km/h (0 Bft)
21.08.2017 07:00 8,9 C 95 % 1023,4 hPa 0,0 l/m 0,0 km/h (0 Bft) O-NO 8,1 C 8,9 C 0,0 km/h (0 Bft)
21.08.2017 08:00 10,2 C 93 % 1023,8 hPa 0,0 l/m 0,0 km/h (0 Bft) O-NO 9,1 C 10,2 C 0,0 km/h (0 Bft)
21.08.2017 09:00 12,0 C 87 % 1023,8 hPa 0,0 l/m 0,0 km/h (0 Bft) O-NO 9,8 C 12,0 C 0,0 km/h (0 Bft)
21.08.2017 10:00 14,5 C 72 % 1023,7 hPa 0,0 l/m 0,6 km/h (0 Bft) N-NW 9,4 C 14,5 C 2,5 km/h (1 Bft)
21.08.2017 11:00 16,4 C 61 % 1023,7 hPa 0,0 l/m 2,2 km/h (1 Bft) NW 8,8 C 16,4 C 5,0 km/h (1 Bft)
21.08.2017 12:00 17,0 C 59 % 1023,7 hPa 0,0 l/m 2,2 km/h (1 Bft) S-SW 8,9 C 17,0 C 5,5 km/h (2 Bft)
21.08.2017 13:00 19,0 C 53 % 1023,1 hPa 0,0 l/m 2,5 km/h (1 Bft) N-NO 9,2 C 19,0 C 6,4 km/h (2 Bft)
21.08.2017 14:00 19,6 C 50 % 1022,7 hPa 0,0 l/m 2,9 km/h (1 Bft) NW 8,8 C 19,6 C 6,8 km/h (2 Bft)
21.08.2017 15:00 20,3 C 47 % 1022,2 hPa 0,0 l/m 2,8 km/h (1 Bft) N-NO 8,7 C 20,3 C 6,1 km/h (2 Bft)
21.08.2017 16:00 20,5 C 46 % 1021,7 hPa 0,0 l/m 3,0 km/h (1 Bft) W-NW 8,5 C 20,5 C 7,1 km/h (2 Bft)
21.08.2017 17:00 20,4 C 47 % 1021,5 hPa 0,0 l/m 1,5 km/h (1 Bft) S 8,7 C 20,4 C 4,9 km/h (1 Bft)
21.08.2017 18:00 18,6 C 57 % 1021,5 hPa 0,0 l/m 0,3 km/h (0 Bft) SW 9,8 C 18,6 C 1,7 km/h (1 Bft)
21.08.2017 19:00 17,8 C 62 % 1021,5 hPa 0,0 l/m 0,4 km/h (0 Bft) SW 10,4 C 17,8 C 2,5 km/h (1 Bft)
21.08.2017 20:00 15,6 C 74 % 1021,8 hPa 0,0 l/m 0,1 km/h (0 Bft) SW 10,8 C 15,6 C 0,7 km/h (0 Bft)
21.08.2017 21:00 13,4 C 85 % 1022,1 hPa 0,0 l/m 0,0 km/h (0 Bft) SW 10,8 C 13,4 C 0,4 km/h (0 Bft)
21.08.2017 22:00 11,9 C 88 % 1022,1 hPa 0,0 l/m 0,0 km/h (0 Bft) SW 10,0 C 11,9 C 0,0 km/h (0 Bft)
21.08.2017 23:00 10,1 C 92 % 1022,0 hPa 0,0 l/m 0,0 km/h (0 Bft) SW 8,8 C 10,1 C 0,0 km/h (0 Bft)
22.08.2017 00:00 9,4 C 93 % 1021,9 hPa 0,0 l/m 0,0 km/h (0 Bft) SW 8,4 C 9,4 C 0,0 km/h (0 Bft)
22.08.2017 01:00 8,6 C 93 % 1021,6 hPa 0,0 l/m 0,0 km/h (0 Bft) SW 7,6 C 8,6 C 0,0 km/h (0 Bft)
22.08.2017 02:00 8,4 C 96 % 1021,4 hPa 0,0 l/m 0,0 km/h (0 Bft) SW 7,7 C 8,4 C 0,0 km/h (0 Bft)
22.08.2017 03:00 9,1 C 96 % 1021,2 hPa 0,0 l/m 0,0 km/h (0 Bft) SW 8,5 C 9,1 C 0,1 km/h (0 Bft)
22.08.2017 04:00 9,7 C 95 % 1021,1 hPa 0,0 l/m 0,0 km/h (0 Bft) SW 9,0 C 9,7 C 0,3 km/h (0 Bft)
22.08.2017 05:00 10,1 C 95 % 1020,8 hPa 0,0 l/m 0,0 km/h (0 Bft) SW 9,3 C 10,1 C 0,3 km/h (0 Bft)
22.08.2017 06:00 10,4 C 94 % 1020,7 hPa 0,0 l/m 0,0 km/h (0 Bft) SW 9,5 C 10,4 C 0,7 km/h (0 Bft)
22.08.2017 07:00 10,9 C 94 % 1020,8 hPa 0,0 l/m 0,1 km/h (0 Bft) SW 10,0 C 10,9 C 0,8 km/h (0 Bft)
22.08.2017 08:00 11,8 C 92 % 1020,7 hPa 0,0 l/m 0,1 km/h (0 Bft) SW 10,6 C 11,8 C 1,1 km/h (0 Bft)
22.08.2017 09:00 13,7 C 88 % 1020,5 hPa 0,0 l/m 0,2 km/h (0 Bft) SW 11,6 C 13,7 C 1,6 km/h (1 Bft)
22.08.2017 10:00 16,7 C 77 % 1020,1 hPa 0,0 l/m 0,9 km/h (0 Bft) W 12,6 C 16,7 C 3,3 km/h (1 Bft)
22.08.2017 11:00 19,5 C 64 % 1019,7 hPa 0,0 l/m 1,5 km/h (1 Bft) S-SO 12,6 C 19,5 C 4,5 km/h (1 Bft)
22.08.2017 12:00 20,0 C 60 % 1019,5 hPa 0,0 l/m 1,9 km/h (1 Bft) S 12,0 C 20,0 C 4,9 km/h (1 Bft)
22.08.2017 13:00 20,3 C 57 % 1019,4 hPa 0,0 l/m 1,7 km/h (1 Bft) O-NO 11,4 C 20,3 C 4,5 km/h (1 Bft)
22.08.2017 14:00 21,4 C 54 % 1018,9 hPa 0,0 l/m 2,7 km/h (1 Bft) NO 11,6 C 21,4 C 6,4 km/h (2 Bft)
22.08.2017 15:00 23,1 C 50 % 1018,4 hPa 0,0 l/m 2,5 km/h (1 Bft) N-NW 12,0 C 23,1 C 6,7 km/h (2 Bft)
22.08.2017 16:00 23,2 C 49 % 1018,0 hPa 0,0 l/m 2,3 km/h (1 Bft) NW 11,9 C 23,2 C 5,9 km/h (2 Bft)
22.08.2017 17:00 23,2 C 49 % 1017,8 hPa 0,0 l/m 1,8 km/h (1 Bft) N-NW 12,0 C 23,2 C 4,7 km/h (1 Bft)
22.08.2017 18:00 22,8 C 50 % 1017,4 hPa 0,0 l/m 1,2 km/h (1 Bft) W-NW 11,8 C 22,8 C 3,7 km/h (1 Bft)
22.08.2017 19:00 20,9 C 62 % 1017,1 hPa 0,0 l/m 0,1 km/h (0 Bft) W-NW 13,2 C 20,9 C 0,5 km/h (0 Bft)
22.08.2017 20:00 17,7 C 76 % 1017,3 hPa 0,0 l/m 0,0 km/h (0 Bft) W-NW 13,3 C 17,7 C 0,0 km/h (0 Bft)
22.08.2017 21:00 14,8 C 85 % 1017,6 hPa 0,0 l/m 0,0 km/h (0 Bft) W-NW 12,4 C 14,8 C 0,4 km/h (0 Bft)
22.08.2017 22:00 13,1 C 89 % 1017,6 hPa 0,0 l/m 0,0 km/h (0 Bft) W-NW 11,4 C 13,1 C 0,0 km/h (0 Bft)
22.08.2017 23:00 11,9 C 92 % 1017,3 hPa 0,0 l/m 0,0 km/h (0 Bft) W-NW 10,7 C 11,9 C 0,0 km/h (0 Bft)
23.08.2017 00:00 11,4 C 93 % 1017,1 hPa 0,0 l/m 0,0 km/h (0 Bft) W-NW 10,3 C 11,4 C 0,0 km/h (0 Bft)
23.08.2017 01:00 10,7 C 94 % 1016,9 hPa 0,0 l/m 0,0 km/h (0 Bft) W-NW 9,7 C 10,7 C 0,0 km/h (0 Bft)
23.08.2017 02:00 10,5 C 95 % 1016,6 hPa 0,0 l/m 0,0 km/h (0 Bft) W-NW 9,6 C 10,5 C 0,4 km/h (0 Bft)
23.08.2017 03:00 10,6 C 95 % 1016,5 hPa 0,0 l/m 0,0 km/h (0 Bft) W-NW 9,8 C 10,6 C 0,4 km/h (0 Bft)
23.08.2017 04:00 10,6 C 95 % 1016,2 hPa 0,0 l/m 0,0 km/h (0 Bft) W-NW 9,7 C 10,6 C 0,1 km/h (0 Bft)
23.08.2017 05:00 10,4 C 95 % 1015,9 hPa 0,0 l/m 0,0 km/h (0 Bft) W-NW 9,6 C 10,4 C 0,0 km/h (0 Bft)
23.08.2017 06:00 10,5 C 95 % 1015,9 hPa 0,0 l/m 0,0 km/h (0 Bft) W-NW 9,8 C 10,5 C 0,0 km/h (0 Bft)
23.08.2017 07:00 10,8 C 96 % 1016,2 hPa 0,0 l/m 0,0 km/h (0 Bft) W-NW 10,1 C 10,8 C 0,3 km/h (0 Bft)
23.08.2017 08:00 11,7 C 95 % 1016,3 hPa 0,0 l/m 0,1 km/h (0 Bft) W-NW 10,9 C 11,7 C 0,5 km/h (0 Bft)
23.08.2017 09:00 15,1 C 87 % 1016,2 hPa 0,0 l/m 0,5 km/h (0 Bft) W-NW 12,9 C 15,1 C 1,9 km/h (1 Bft)
23.08.2017 10:00 20,3 C 72 % 1016,0 hPa 0,0 l/m 1,5 km/h (1 Bft) O-NO 15,0 C 20,3 C 4,7 km/h (1 Bft)
23.08.2017 11:00 23,2 C 61 % 1015,6 hPa 0,0 l/m 2,0 km/h (1 Bft) N-NW 15,2 C 23,2 C 4,6 km/h (1 Bft)
23.08.2017 12:00 24,4 C 55 % 1015,3 hPa 0,0 l/m 1,6 km/h (1 Bft) O 14,9 C 24,4 C 4,3 km/h (1 Bft)
23.08.2017 13:00 26,3 C 45 % 1015,1 hPa 0,0 l/m 2,6 km/h (1 Bft) O-NO 13,4 C 26,3 C 6,7 km/h (2 Bft)
23.08.2017 14:00 27,6 C 42 % 1015,0 hPa 0,0 l/m 2,8 km/h (1 Bft) O-NO 13,3 C 27,6 C 6,9 km/h (2 Bft)
23.08.2017 15:00 28,3 C 36 % 1014,9 hPa 0,0 l/m 4,0 km/h (1 Bft) NO 11,7 C 28,3 C 9,7 km/h (2 Bft)
23.08.2017 16:00 28,7 C 38 % 1014,6 hPa 0,0 l/m 3,5 km/h (1 Bft) O-NO 12,8 C 28,7 C 9,3 km/h (2 Bft)
23.08.2017 17:00 28,4 C 37 % 1014,4 hPa 0,0 l/m 3,0 km/h (1 Bft) O-NO 12,1 C 28,4 C 8,3 km/h (2 Bft)
23.08.2017 18:00 27,4 C 40 % 1014,3 hPa 0,0 l/m 1,6 km/h (1 Bft) O-SO 12,7 C 27,4 C 5,9 km/h (2 Bft)
23.08.2017 19:00 24,5 C 56 % 1014,1 hPa 0,0 l/m 0,0 km/h (0 Bft) O-SO 15,2 C 24,5 C 0,7 km/h (0 Bft)
23.08.2017 20:00 20,3 C 73 % 1014,5 hPa 0,0 l/m 0,1 km/h (0 Bft) O-SO 15,2 C 20,3 C 0,4 km/h (0 Bft)
23.08.2017 21:00 17,4 C 82 % 1014,8 hPa 0,0 l/m 0,0 km/h (0 Bft) O-SO 14,2 C 17,4 C 0,5 km/h (0 Bft)
23.08.2017 22:00 15,8 C 86 % 1014,9 hPa 0,0 l/m 0,0 km/h (0 Bft) O-SO 13,5 C 15,8 C 0,1 km/h (0 Bft)
23.08.2017 23:00 14,9 C 89 % 1015,0 hPa 0,0 l/m 0,0 km/h (0 Bft) O-SO 13,1 C 14,9 C 0,0 km/h (0 Bft)
24.08.2017 00:00 14,4 C 90 % 1015,0 hPa 0,0 l/m 0,0 km/h (0 Bft) O-SO 12,8 C 14,4 C 0,0 km/h (0 Bft)
24.08.2017 01:00 13,9 C 91 % 1014,8 hPa 0,0 l/m 0,0 km/h (0 Bft) O-SO 12,5 C 13,9 C 0,3 km/h (0 Bft)
24.08.2017 02:00 13,4 C 92 % 1014,7 hPa 0,0 l/m 0,0 km/h (0 Bft) O-SO 12,2 C 13,4 C 0,0 km/h (0 Bft)
24.08.2017 03:00 13,0 C 94 % 1015,0 hPa 0,0 l/m 0,0 km/h (0 Bft) O-SO 11,9 C 13,0 C 0,4 km/h (0 Bft)
24.08.2017 04:00 13,0 C 94 % 1015,1 hPa 0,0 l/m 0,0 km/h (0 Bft) O-SO 12,1 C 13,0 C 0,1 km/h (0 Bft)
24.08.2017 05:00 12,7 C 95 % 1014,9 hPa 0,0 l/m 0,0 km/h (0 Bft) O-SO 11,8 C 12,7 C 0,0 km/h (0 Bft)
24.08.2017 06:00 12,6 C 96 % 1015,1 hPa 0,0 l/m 0,0 km/h (0 Bft) O-SO 12,0 C 12,6 C 0,0 km/h (0 Bft)
24.08.2017 07:00 14,5 C 97 % 1015,7 hPa 0,0 l/m 1,1 km/h (1 Bft) O-SO 14,1 C 14,5 C 3,3 km/h (1 Bft)
24.08.2017 08:00 17,6 C 92 % 1015,8 hPa 0,0 l/m 3,7 km/h (1 Bft) NO 16,2 C 17,6 C 9,9 km/h (2 Bft)
24.08.2017 09:00 18,8 C 88 % 1016,0 hPa 0,0 l/m 1,8 km/h (1 Bft) NO 16,7 C 18,8 C 5,1 km/h (1 Bft)
24.08.2017 10:00 20,0 C 83 % 1016,4 hPa 0,0 l/m 2,8 km/h (1 Bft) NO 17,0 C 20,0 C 6,8 km/h (2 Bft)
24.08.2017 11:00 22,2 C 72 % 1016,5 hPa 0,0 l/m 5,4 km/h (1 Bft) NO 17,0 C 22,2 C 11,2 km/h (2 Bft)
24.08.2017 12:00 23,2 C 68 % 1016,3 hPa 0,0 l/m 4,4 km/h (1 Bft) NO 16,9 C 23,2 C 10,5 km/h (2 Bft)
24.08.2017 13:00 25,3 C 59 % 1015,8 hPa 0,0 l/m 3,2 km/h (1 Bft) O-NO 16,8 C 25,3 C 8,4 km/h (2 Bft)
24.08.2017 14:00 26,1 C 53 % 1015,7 hPa 0,0 l/m 2,9 km/h (1 Bft) O-NO 15,8 C 26,1 C 7,9 km/h (2 Bft)
24.08.2017 15:00 27,0 C 46 % 1015,5 hPa 0,0 l/m 3,8 km/h (1 Bft) O-NO 14,3 C 27,0 C 9,8 km/h (2 Bft)
24.08.2017 16:00 26,9 C 46 % 1015,6 hPa 0,0 l/m 3,6 km/h (1 Bft) O-NO 14,3 C 26,9 C 9,3 km/h (2 Bft)
24.08.2017 17:00 25,8 C 51 % 1015,8 hPa 0,0 l/m 3,0 km/h (1 Bft) O-NO 14,9 C 25,8 C 7,6 km/h (2 Bft)
24.08.2017 18:00 24,0 C 61 % 1016,4 hPa 0,0 l/m 1,8 km/h (1 Bft) O-NO 16,0 C 24,0 C 5,6 km/h (2 Bft)
24.08.2017 19:00 22,9 C 65 % 1016,5 hPa 0,0 l/m 2,3 km/h (1 Bft) NO 15,9 C 22,9 C 5,7 km/h (2 Bft)
24.08.2017 20:00 21,1 C 71 % 1016,6 hPa 0,0 l/m 0,4 km/h (0 Bft) NO 15,6 C 21,1 C 2,0 km/h (1 Bft)
24.08.2017 21:00 19,6 C 75 % 1016,6 hPa 0,0 l/m 2,2 km/h (1 Bft) O 15,0 C 19,6 C 6,2 km/h (2 Bft)
24.08.2017 22:00 18,1 C 77 % 1016,7 hPa 0,0 l/m 1,7 km/h (1 Bft) O 13,9 C 18,1 C 5,9 km/h (2 Bft)
24.08.2017 23:00 15,9 C 84 % 1016,9 hPa 0,0 l/m 0,0 km/h (0 Bft) SO 13,2 C 15,9 C 0,7 km/h (0 Bft)
25.08.2017 00:00 14,9 C 88 % 1016,9 hPa 0,0 l/m 0,2 km/h (0 Bft) SO 12,9 C 14,9 C 1,2 km/h (1 Bft)
25.08.2017 01:00 14,3 C 90 % 1017,0 hPa 0,0 l/m 0,1 km/h (0 Bft) O 12,6 C 14,3 C 0,7 km/h (0 Bft)
25.08.2017 02:00 13,5 C 92 % 1016,9 hPa 0,0 l/m 0,1 km/h (0 Bft) O 12,2 C 13,5 C 0,8 km/h (0 Bft)
25.08.2017 03:00 12,6 C 93 % 1016,9 hPa 0,0 l/m 0,0 km/h (0 Bft) O 11,6 C 12,6 C 0,3 km/h (0 Bft)
25.08.2017 04:00 12,5 C 95 % 1016,6 hPa 0,0 l/m 0,0 km/h (0 Bft) O 11,7 C 12,5 C 0,0 km/h (0 Bft)
25.08.2017 05:00 12,4 C 95 % 1016,6 hPa 0,0 l/m 0,0 km/h (0 Bft) O 11,5 C 12,4 C 0,1 km/h (0 Bft)
25.08.2017 06:00 12,1 C 95 % 1016,8 hPa 0,0 l/m 0,0 km/h (0 Bft) O 11,3 C 12,1 C 0,1 km/h (0 Bft)
25.08.2017 07:00 12,5 C 96 % 1017,0 hPa 0,0 l/m 0,0 km/h (0 Bft) O 11,9 C 12,5 C 0,0 km/h (0 Bft)
25.08.2017 08:00 14,7 C 93 % 1017,1 hPa 0,0 l/m 0,0 km/h (0 Bft) O 13,6 C 14,7 C 0,1 km/h (0 Bft)
25.08.2017 09:00 19,6 C 78 % 1017,3 hPa 0,0 l/m 0,7 km/h (0 Bft) NO 15,7 C 19,6 C 2,7 km/h (1 Bft)
25.08.2017 10:00 22,9 C 69 % 1017,1 hPa 0,0 l/m 1,8 km/h (1 Bft) O-NO 16,8 C 22,9 C 5,6 km/h (2 Bft)
25.08.2017 11:00 25,4 C 63 % 1016,7 hPa 0,0 l/m 2,1 km/h (1 Bft) NO 17,7 C 25,4 C 5,2 km/h (1 Bft)
25.08.2017 12:00 26,2 C 58 % 1016,3 hPa 0,0 l/m 2,9 km/h (1 Bft) N-NO 17,3 C 26,2 C 6,7 km/h (2 Bft)
25.08.2017 13:00 27,6 C 52 % 1015,9 hPa 0,0 l/m 3,5 km/h (1 Bft) O-NO 16,8 C 27,6 C 10,2 km/h (2 Bft)
25.08.2017 14:00 28,7 C 49 % 1015,4 hPa 0,0 l/m 3,1 km/h (1 Bft) NO 16,8 C 28,7 C 7,5 km/h (2 Bft)
25.08.2017 15:00 28,8 C 47 % 1015,1 hPa 0,0 l/m 2,3 km/h (1 Bft) NW 16,4 C 28,8 C 5,9 km/h (2 Bft)
25.08.2017 16:00 29,1 C 47 % 1014,7 hPa 0,0 l/m 3,0 km/h (1 Bft) O-NO 16,7 C 29,1 C 8,6 km/h (2 Bft)
25.08.2017 17:00 28,6 C 50 % 1014,3 hPa 0,0 l/m 1,2 km/h (1 Bft) SO 17,2 C 28,6 C 4,0 km/h (1 Bft)
25.08.2017 18:00 26,3 C 62 % 1013,9 hPa 0,0 l/m 0,3 km/h (0 Bft) S-SO 18,3 C 26,3 C 2,0 km/h (1 Bft)
25.08.2017 19:00 24,7 C 69 % 1014,1 hPa 0,0 l/m 0,0 km/h (0 Bft) S-SO 18,5 C 24,7 C 0,5 km/h (0 Bft)
25.08.2017 20:00 22,0 C 79 % 1014,4 hPa 0,0 l/m 0,0 km/h (0 Bft) S-SO 18,1 C 22,0 C 0,7 km/h (0 Bft)
25.08.2017 21:00 19,4 C 85 % 1014,8 hPa 0,0 l/m 0,1 km/h (0 Bft) S-SO 16,9 C 19,4 C 0,5 km/h (0 Bft)
25.08.2017 22:00 18,1 C 90 % 1015,0 hPa 0,0 l/m 0,1 km/h (0 Bft) S-SO 16,4 C 18,1 C 0,8 km/h (0 Bft)
25.08.2017 23:00 17,0 C 92 % 1015,3 hPa 0,0 l/m 0,0 km/h (0 Bft) S-SO 15,7 C 17,0 C 0,5 km/h (0 Bft)
26.08.2017 00:00 16,3 C 93 % 1015,3 hPa 0,0 l/m 0,0 km/h (0 Bft) S-SO 15,2 C 16,3 C 0,3 km/h (0 Bft)
26.08.2017 01:00 15,4 C 94 % 1015,3 hPa 0,0 l/m 0,0 km/h (0 Bft) S-SO 14,5 C 15,4 C 0,4 km/h (0 Bft)
26.08.2017 02:00 14,8 C 95 % 1015,0 hPa 0,0 l/m 0,0 km/h (0 Bft) S-SO 14,0 C 14,8 C 0,0 km/h (0 Bft)
26.08.2017 03:00 14,2 C 95 % 1015,0 hPa 0,0 l/m 0,0 km/h (0 Bft) S-SO 13,4 C 14,2 C 0,0 km/h (0 Bft)
26.08.2017 04:00 13,8 C 96 % 1015,0 hPa 0,0 l/m 0,0 km/h (0 Bft) S-SO 13,1 C 13,8 C 0,1 km/h (0 Bft)
26.08.2017 05:00 13,5 C 96 % 1014,9 hPa 0,0 l/m 0,0 km/h (0 Bft) S-SO 12,9 C 13,5 C 0,7 km/h (0 Bft)
26.08.2017 06:00 13,6 C 97 % 1015,1 hPa 0,0 l/m 0,1 km/h (0 Bft) S-SO 13,1 C 13,6 C 1,3 km/h (1 Bft)
26.08.2017 07:00 14,0 C 97 % 1015,2 hPa 0,0 l/m 0,1 km/h (0 Bft) S-SO 13,6 C 14,0 C 1,5 km/h (1 Bft)
26.08.2017 08:00 15,9 C 96 % 1015,3 hPa 0,0 l/m 0,0 km/h (0 Bft) S-SO 15,3 C 15,9 C 1,1 km/h (0 Bft)
26.08.2017 09:00 20,3 C 81 % 1015,2 hPa 0,0 l/m 0,7 km/h (0 Bft) S-SO 16,9 C 20,3 C 2,8 km/h (1 Bft)
26.08.2017 10:00 23,9 C 58 % 1015,4 hPa 0,0 l/m 3,8 km/h (1 Bft) NO 15,2 C 23,9 C 9,9 km/h (2 Bft)
26.08.2017 11:00 25,7 C 54 % 1015,3 hPa 0,0 l/m 4,8 km/h (1 Bft) O-NO 15,6 C 25,7 C 10,7 km/h (2 Bft)
26.08.2017 12:00 26,6 C 52 % 1015,1 hPa 0,0 l/m 4,6 km/h (1 Bft) O-NO 15,8 C 26,6 C 10,6 km/h (2 Bft)
26.08.2017 13:00 27,8 C 46 % 1014,6 hPa 0,0 l/m 4,2 km/h (1 Bft) NO 15,2 C 27,8 C 10,6 km/h (2 Bft)
26.08.2017 14:00 28,7 C 40 % 1014,4 hPa 0,0 l/m 6,0 km/h (2 Bft) NO 13,5 C 28,6 C 15,0 km/h (3 Bft)
26.08.2017 15:00 29,0 C 36 % 1014,3 hPa 0,0 l/m 5,5 km/h (2 Bft) NO 12,5 C 29,0 C 13,8 km/h (3 Bft)
26.08.2017 16:00 28,8 C 36 % 1014,1 hPa 0,0 l/m 5,9 km/h (2 Bft) O 12,0 C 28,7 C 14,6 km/h (3 Bft)
26.08.2017 17:00 28,8 C 38 % 1013,8 hPa 0,0 l/m 4,1 km/h (1 Bft) O-NO 12,8 C 28,8 C 10,2 km/h (2 Bft)
26.08.2017 18:00 27,9 C 41 % 1013,4 hPa 0,0 l/m 2,1 km/h (1 Bft) O-NO 13,2 C 27,9 C 5,5 km/h (2 Bft)
26.08.2017 19:00 24,7 C 57 % 1013,3 hPa 0,0 l/m 0,0 km/h (0 Bft) O 15,6 C 24,7 C 0,3 km/h (0 Bft)
26.08.2017 20:00 20,8 C 72 % 1013,8 hPa 0,0 l/m 0,0 km/h (0 Bft) O 15,5 C 20,8 C 0,0 km/h (0 Bft)
26.08.2017 21:00 18,1 C 80 % 1014,4 hPa 0,0 l/m 0,0 km/h (0 Bft) O 14,6 C 18,1 C 0,0 km/h (0 Bft)
26.08.2017 22:00 16,6 C 84 % 1014,9 hPa 0,0 l/m 0,0 km/h (0 Bft) O 13,9 C 16,6 C 0,0 km/h (0 Bft)
26.08.2017 23:00 15,6 C 87 % 1015,0 hPa 0,0 l/m 0,0 km/h (0 Bft) O 13,3 C 15,6 C 0,0 km/h (0 Bft)
27.08.2017 00:00 15,0 C 88 % 1014,9 hPa 0,0 l/m 0,0 km/h (0 Bft) O 13,0 C 15,0 C 0,0 km/h (0 Bft)
27.08.2017 01:00 14,4 C 90 % 1014,9 hPa 0,0 l/m 0,0 km/h (0 Bft) O 12,7 C 14,4 C 0,0 km/h (0 Bft)
27.08.2017 02:00 13,6 C 92 % 1014,9 hPa 0,0 l/m 0,0 km/h (0 Bft) O 12,3 C 13,6 C 0,0 km/h (0 Bft)
27.08.2017 03:00 13,3 C 93 % 1014,9 hPa 0,0 l/m 0,0 km/h (0 Bft) O 12,2 C 13,3 C 0,0 km/h (0 Bft)
27.08.2017 04:00 13,2 C 93 % 1014,7 hPa 0,0 l/m 0,0 km/h (0 Bft) O 12,1 C 13,2 C 0,0 km/h (0 Bft)
27.08.2017 05:00 13,3 C 93 % 1014,6 hPa 0,0 l/m 0,1 km/h (0 Bft) O 12,2 C 13,3 C 0,4 km/h (0 Bft)
27.08.2017 06:00 13,0 C 93 % 1014,7 hPa 0,0 l/m 0,0 km/h (0 Bft) O 12,0 C 13,0 C 0,0 km/h (0 Bft)
27.08.2017 07:00 13,3 C 95 % 1014,9 hPa 0,0 l/m 0,1 km/h (0 Bft) O 12,5 C 13,3 C 0,9 km/h (0 Bft)
27.08.2017 08:00 14,4 C 96 % 1015,4 hPa 1,5 l/m 0,8 km/h (0 Bft) S-SO 13,6 C 14,4 C 3,2 km/h (1 Bft)
27.08.2017 09:00 16,6 C 96 % 1015,7 hPa 0,0 l/m 0,4 km/h (0 Bft) S-SO 15,9 C 16,6 C 2,0 km/h (1 Bft)
27.08.2017 10:00 20,2 C 87 % 1016,0 hPa 0,0 l/m 1,3 km/h (1 Bft) W-SW 18,0 C 20,2 C 4,1 km/h (1 Bft)
27.08.2017 11:00 22,1 C 79 % 1015,9 hPa 0,0 l/m 1,8 km/h (1 Bft) S 18,2 C 22,1 C 4,6 km/h (1 Bft)
27.08.2017 12:00 23,8 C 73 % 1015,8 hPa 0,0 l/m 2,3 km/h (1 Bft) NW 18,5 C 23,8 C 6,1 km/h (2 Bft)
27.08.2017 13:00 25,8 C 56 % 1015,5 hPa 0,0 l/m 4,0 km/h (1 Bft) NO 16,4 C 25,8 C 10,6 km/h (2 Bft)
27.08.2017 14:00 26,3 C 55 % 1015,4 hPa 0,0 l/m 3,5 km/h (1 Bft) N-NO 16,6 C 26,3 C 9,9 km/h (2 Bft)
27.08.2017 15:00 27,0 C 53 % 1015,1 hPa 0,0 l/m 3,7 km/h (1 Bft) O-NO 16,5 C 27,0 C 10,3 km/h (2 Bft)
27.08.2017 16:00 27,7 C 51 % 1015,0 hPa 0,0 l/m 3,7 km/h (1 Bft) O 16,6 C 27,7 C 9,7 km/h (2 Bft)
27.08.2017 17:00 27,7 C 52 % 1014,8 hPa 0,0 l/m 2,5 km/h (1 Bft) O 17,0 C 27,7 C 6,9 km/h (2 Bft)
27.08.2017 18:00 27,2 C 55 % 1014,8 hPa 0,0 l/m 0,5 km/h (0 Bft) O 17,4 C 27,2 C 2,7 km/h (1 Bft)
27.08.2017 19:00 24,9 C 68 % 1015,0 hPa 0,0 l/m 1,4 km/h (1 Bft) W 18,6 C 24,9 C 6,0 km/h (2 Bft)
27.08.2017 20:00 22,4 C 78 % 1015,7 hPa 0,0 l/m 0,7 km/h (0 Bft) SW 18,3 C 22,4 C 4,0 km/h (1 Bft)
27.08.2017 21:00 20,9 C 84 % 1016,5 hPa 0,0 l/m 0,3 km/h (0 Bft) S-SW 18,0 C 20,9 C 2,8 km/h (1 Bft)
27.08.2017 22:00 19,2 C 87 % 1016,9 hPa 0,0 l/m 0,2 km/h (0 Bft) S-SW 16,9 C 19,2 C 0,9 km/h (0 Bft)
27.08.2017 23:00 17,5 C 91 % 1016,8 hPa 0,0 l/m 0,0 km/h (0 Bft) S-SW 16,0 C 17,5 C 0,0 km/h (0 Bft)
Min-Datum _ 21.08.17 26.08.17 26.08.17 - 27.08.17 - 21.08.17 21.08.17 27.08.17
_ Min-Zeit 03:40 15:00 19:05 - 23:00 - 03:40 03:40 23:00
Minimum _ 7,6 C 33 % 1013,2 hPa - 0,0 km/h (0 Bft) - 6,7 C 7,6 C 0,0 km/h (0 Bft)
Max-Datum _ 26.08.17 24.08.17 21.08.17 27.08.17 26.08.17 - 27.08.17 26.08.17 26.08.17
_ Max-Zeit 16:00 07:35 00:55 08:25 16:10 - 19:00 16:00 16:10
Maximum _ 29,4 C 98 % 1024,7 hPa 1,5 l/m 9,8 km/h
O (2 Bft)
- 19,6 C 29,4 C 19,3 km/h
O-NO (3 Bft)
Durchschnitt _ 18,1 C 76 % 1017,1 hPa #1,5 l/m 1,2 km/h (1 Bft) O 13,1 C 18,1 C 3,2 km/h (1 Bft)